createdAt,value
2022-09-28T00:04:16.273Z,9.16
2022-09-28T00:09:48.142Z,9.22
2022-09-28T00:15:19.997Z,9.28
2022-09-28T00:20:51.986Z,9.33
2022-09-28T00:26:23.897Z,9.36
2022-09-28T00:31:55.471Z,9.39
2022-09-28T00:37:27.662Z,9.41
2022-09-28T00:42:59.302Z,9.43
2022-09-28T00:54:00.502Z,9.45
2022-09-28T00:59:32.168Z,9.46
2022-09-28T01:10:33.590Z,9.46
2022-09-28T01:21:35.067Z,9.37
2022-09-28T01:27:06.708Z,9.35
2022-09-28T01:32:38.462Z,9.35
2022-09-28T01:38:10.473Z,9.35
2022-09-28T01:49:11.495Z,9.37
2022-09-28T01:54:43.289Z,9.38
2022-09-28T02:05:44.707Z,9.39
2022-09-28T02:13:37.693Z,9.00
2022-09-28T02:24:39.012Z,9.25
2022-09-28T02:30:10.805Z,9.28
2022-09-28T02:35:42.757Z,9.27
2022-09-28T02:41:14.538Z,9.22
2022-09-28T02:46:46.345Z,9.15
2022-09-28T02:52:18.310Z,9.08
2022-09-28T02:57:51.525Z,9.01
2022-09-28T03:03:23.147Z,8.94
2022-09-28T03:08:54.648Z,8.89
2022-09-28T03:14:26.319Z,8.85
2022-09-28T03:19:57.852Z,8.84
2022-09-28T03:25:29.652Z,8.84
2022-09-28T03:31:01.449Z,8.84
2022-09-28T03:36:33.338Z,8.84
2022-09-28T03:42:05.306Z,8.85
2022-09-28T03:47:36.954Z,8.86
2022-09-28T03:53:08.338Z,8.88
2022-09-28T03:58:39.848Z,8.91
2022-09-28T04:04:11.515Z,8.95
2022-09-28T04:09:43.577Z,9.00
2022-09-28T04:15:15.172Z,9.06
2022-09-28T04:20:46.707Z,9.11
2022-09-28T04:26:18.311Z,9.15
2022-09-28T04:31:50.175Z,9.19
2022-09-28T04:37:21.906Z,9.23
2022-09-28T04:42:53.811Z,9.25
2022-09-28T04:48:25.575Z,9.29
2022-09-28T04:53:57.255Z,9.32
2022-09-28T05:05:00.761Z,9.35
2022-09-28T05:10:32.048Z,9.37
2022-09-28T05:16:05.577Z,9.38
2022-09-28T05:21:35.031Z,9.41
2022-09-28T05:27:06.550Z,9.45
2022-09-28T05:32:37.891Z,9.48
2022-09-28T05:38:09.647Z,9.53
2022-09-28T05:43:41.400Z,9.55
2022-09-28T05:49:12.734Z,9.59
2022-09-28T05:54:44.064Z,9.66
2022-09-28T06:00:16.223Z,9.68
2022-09-28T06:05:47.485Z,9.69
2022-09-28T06:11:19.053Z,9.70
2022-09-28T06:16:50.798Z,9.68
2022-09-28T06:22:22.027Z,9.68
2022-09-28T06:27:53.630Z,9.68
2022-09-28T06:33:25.125Z,9.69
2022-09-28T06:38:56.957Z,9.71
2022-09-28T06:44:28.736Z,9.75
2022-09-28T06:50:00.054Z,9.78
2022-09-28T06:55:32.003Z,9.89
2022-09-28T07:01:03.879Z,9.95
2022-09-28T07:06:35.613Z,9.96
2022-09-28T07:12:07.386Z,9.99
2022-09-28T07:17:52.488Z,10.01
2022-09-28T07:23:18.960Z,10.05
2022-09-28T07:28:42.312Z,10.12
2022-09-28T07:34:14.148Z,10.22
2022-09-28T07:39:46.221Z,10.31
2022-09-28T07:45:17.762Z,10.38
2022-09-28T07:50:49.524Z,10.43
2022-09-28T07:56:21.549Z,10.46
2022-09-28T08:01:53.314Z,10.51
2022-09-28T08:07:25.111Z,10.58
2022-09-28T08:12:59.280Z,10.65
2022-09-28T08:18:28.753Z,10.72
2022-09-28T08:24:00.557Z,10.80
2022-09-28T08:29:32.128Z,10.90
2022-09-28T08:35:03.822Z,10.99
2022-09-28T08:40:35.878Z,11.03
2022-09-28T08:46:07.437Z,11.08
2022-09-28T08:51:39.095Z,11.12
2022-09-28T08:57:10.822Z,11.18
2022-09-28T09:02:42.650Z,11.15
2022-09-28T09:08:14.337Z,10.94
2022-09-28T09:13:46.161Z,10.65
2022-09-28T09:24:49.623Z,10.28
2022-09-28T09:30:21.532Z,10.21
2022-09-28T09:35:53.307Z,10.23
2022-09-28T09:41:25.210Z,10.32
2022-09-28T09:46:56.946Z,10.36
2022-09-28T09:52:28.802Z,10.35
2022-09-28T09:54:52.439Z,9.97
2022-09-28T10:00:24.183Z,10.16
2022-09-28T10:05:55.572Z,10.29
2022-09-28T10:11:27.032Z,10.41
2022-09-28T10:16:58.979Z,10.55
2022-09-28T10:22:30.468Z,10.69
2022-09-28T10:28:02.165Z,10.81
2022-09-28T10:33:33.784Z,10.94
2022-09-28T10:39:05.672Z,11.05
2022-09-28T10:44:37.469Z,11.16
2022-09-28T10:50:09.335Z,11.25
2022-09-28T10:55:41.215Z,11.33
2022-09-28T11:01:13.082Z,11.43
2022-09-28T11:06:44.695Z,11.54
2022-09-28T11:12:16.488Z,11.66
2022-09-28T11:17:48.123Z,11.77
2022-09-28T11:23:20.056Z,11.84
2022-09-28T11:28:51.777Z,11.88
2022-09-28T11:34:31.364Z,11.93
2022-09-28T11:39:55.315Z,11.98
2022-09-28T11:45:26.655Z,12.04
2022-09-28T11:50:58.057Z,12.10
2022-09-28T11:56:29.906Z,12.17
2022-09-28T12:07:31.237Z,12.21
2022-09-28T12:15:25.088Z,11.92
2022-09-28T12:20:57.553Z,12.11
2022-09-28T12:26:28.677Z,12.22
2022-09-28T12:32:00.352Z,12.25
2022-09-28T12:39:58.137Z,11.66
2022-09-28T12:45:24.449Z,11.82
2022-09-28T12:50:57.857Z,11.81
2022-09-28T12:56:28.107Z,11.75
2022-09-28T13:01:59.963Z,11.66
2022-09-28T13:07:31.747Z,11.56
2022-09-28T13:13:03.591Z,11.51
2022-09-28T13:18:35.380Z,11.48
2022-09-28T13:24:27.789Z,11.42
2022-09-28T13:35:10.412Z,11.32
2022-09-28T13:40:42.261Z,11.33
2022-09-28T13:46:14.039Z,11.40
2022-09-28T13:51:45.810Z,11.47
2022-09-28T13:57:17.793Z,11.52
2022-09-28T14:02:49.620Z,11.56
2022-09-28T14:08:21.153Z,11.58
2022-09-28T14:13:52.609Z,11.58
2022-09-28T14:19:24.479Z,11.58
2022-09-28T14:24:56.309Z,11.56
2022-09-28T14:30:28.089Z,11.54
2022-09-28T14:35:59.594Z,11.51
2022-09-28T14:41:31.204Z,11.49
2022-09-28T14:47:02.930Z,11.48
2022-09-28T14:52:34.541Z,11.46
2022-09-28T14:58:06.697Z,11.43
2022-09-28T15:03:38.708Z,11.42
2022-09-28T15:09:10.165Z,11.41
2022-09-28T15:14:41.767Z,11.38
2022-09-28T15:20:13.308Z,11.36
2022-09-28T15:25:45.712Z,11.33
2022-09-28T15:31:17.541Z,11.30
2022-09-28T15:36:49.189Z,11.26
2022-09-28T15:42:20.855Z,11.23
2022-09-28T15:47:52.803Z,11.19
2022-09-28T15:58:53.689Z,11.10
2022-09-28T16:04:25.276Z,11.06
2022-09-28T16:15:26.739Z,10.96
2022-09-28T16:20:58.622Z,10.91
2022-09-28T16:26:30.228Z,10.85
2022-09-28T16:32:02.410Z,10.77
2022-09-28T16:37:34.166Z,10.69
2022-09-28T16:43:06.186Z,10.62
2022-09-28T16:48:38.270Z,10.56
2022-09-28T16:54:09.710Z,10.51
2022-09-28T16:59:41.557Z,10.43
2022-09-28T17:05:13.953Z,10.35
2022-09-28T17:11:09.802Z,10.27
2022-09-28T17:16:17.735Z,10.21
2022-09-28T17:21:49.521Z,10.13
2022-09-28T17:27:21.160Z,10.05
2022-09-28T17:32:52.874Z,9.99
2022-09-28T17:38:24.670Z,9.93
2022-09-28T17:46:17.305Z,9.36
2022-09-28T17:51:49.125Z,9.54
2022-09-28T17:57:20.553Z,9.62
2022-09-28T18:02:52.248Z,9.65
2022-09-28T18:08:24.294Z,9.66
2022-09-28T18:13:55.902Z,9.66
2022-09-28T18:19:31.925Z,9.66
2022-09-28T18:24:59.490Z,9.65
2022-09-28T18:30:31.219Z,9.64
2022-09-28T18:41:32.319Z,9.60
2022-09-28T18:47:03.921Z,9.58
2022-09-28T18:58:04.612Z,9.54
2022-09-28T19:03:36.461Z,9.52
2022-09-28T19:14:37.502Z,9.49
2022-09-28T19:20:09.221Z,9.48
2022-09-28T19:31:10.411Z,9.47
2022-09-28T19:36:41.696Z,9.44
2022-09-28T19:42:13.615Z,9.43
2022-09-28T19:47:45.513Z,9.42
2022-09-28T19:58:46.918Z,9.41
2022-09-28T20:04:18.648Z,9.41
2022-09-28T20:09:50.169Z,9.41
2022-09-28T20:15:22.359Z,9.41
2022-09-28T20:20:53.952Z,9.42
2022-09-28T20:39:45.395Z,9.02
2022-09-28T20:45:17.267Z,9.20
2022-09-28T20:50:48.950Z,9.29
2022-09-28T20:56:21.412Z,9.34
2022-09-28T21:01:53.238Z,9.35
2022-09-28T21:07:25.052Z,9.34
2022-09-28T21:12:57.079Z,9.32
2022-09-28T21:18:28.786Z,9.29
2022-09-28T21:24:00.516Z,9.30
2022-09-28T21:29:32.619Z,9.31
2022-09-28T21:40:36.017Z,9.28
2022-09-28T21:46:07.792Z,9.25
2022-09-28T21:51:39.757Z,9.21
2022-09-28T22:02:40.788Z,9.15
2022-09-28T22:13:44.443Z,9.09
2022-09-28T22:19:16.330Z,9.07
2022-09-28T22:30:17.240Z,9.04
2022-09-28T22:35:48.806Z,9.02
2022-09-28T22:41:20.391Z,9.01
2022-09-28T22:46:52.207Z,9.00
2022-09-28T23:03:25.333Z,9.00
2022-09-28T23:08:57.201Z,8.99
2022-09-28T23:14:28.867Z,8.98
2022-09-28T23:20:01.093Z,8.98
2022-09-28T23:25:32.608Z,8.98
2022-09-28T23:31:03.958Z,8.98
2022-09-28T23:36:35.332Z,8.97
2022-09-28T23:42:07.055Z,8.97
2022-09-28T23:47:38.926Z,8.95
2022-09-28T23:53:10.830Z,8.95
2022-09-28T23:58:42.595Z,8.94
